Farson, Iowa
Current Conditions -  °F | °C
As of 11:15 PM on Saturday 25 Oct 2014 (Local Time) from KOOA Reporting Station
Clear Clear  
Wind Chill: 45°   Ceiling: Unl
Heat Index: 48°   Visibility: 7mi
Dew Point: 37°   Wind: 7mph
Humidity: 66%   Direction: 10°N
Pressure: 30.07"   Gusts: NA
Location:  41.2094°N, 92.3382°W
Report Text: KOOA 260415Z AUTO 01006KT 7SM CLR 09/03 A3007 RMK AO2 T00900029
Loading
Personal Weather Stations






























Interactive Weather Map
Tropical Storm Tracking
New forecast layout! Learn more

10-Day Weather Forecast

Advertisements
Track Severe Weather on mobile